createdAt,value
2022-10-31T00:02:25.207Z,22.65
2022-10-31T00:05:28.542Z,22.58
2022-10-31T00:08:31.927Z,21.80
2022-10-31T00:11:34.962Z,23.50
2022-10-31T00:14:37.647Z,22.87
2022-10-31T00:17:40.355Z,22.45
2022-10-31T00:20:42.975Z,22.85
2022-10-31T00:23:46.187Z,21.67
2022-10-31T00:26:48.701Z,20.42
2022-10-31T00:29:51.550Z,22.02
2022-10-31T00:32:54.425Z,21.58
2022-10-31T00:35:57.993Z,20.35
2022-10-31T00:39:08.663Z,20.53
2022-10-31T00:42:12.025Z,19.40
2022-10-31T00:45:16.827Z,18.85
2022-10-31T00:48:20.007Z,20.90
2022-10-31T00:51:26.513Z,18.92
2022-10-31T00:54:32.439Z,18.20
2022-10-31T00:57:35.315Z,16.77
2022-10-31T01:00:40.547Z,18.17
2022-10-31T01:03:43.647Z,17.25
2022-10-31T01:06:48.336Z,18.10
2022-10-31T01:09:52.496Z,17.50
2022-10-31T01:12:56.128Z,15.68
2022-10-31T01:16:00.910Z,17.30
2022-10-31T01:19:04.065Z,14.57
2022-10-31T01:22:06.964Z,14.70
2022-10-31T01:25:11.376Z,15.43
2022-10-31T01:28:14.061Z,16.65
2022-10-31T01:31:19.560Z,16.23
2022-10-31T01:34:22.541Z,15.30
2022-10-31T01:37:26.470Z,16.50
2022-10-31T01:40:31.062Z,15.47
2022-10-31T01:43:54.126Z,13.55
2022-10-31T01:47:06.409Z,14.63
2022-10-31T01:50:14.860Z,14.25
2022-10-31T01:53:20.713Z,13.65
2022-10-31T01:56:26.752Z,14.90
2022-10-31T01:59:33.523Z,14.98
2022-10-31T02:02:37.943Z,14.82
2022-10-31T02:05:43.868Z,14.52
2022-10-31T02:08:47.240Z,16.58
2022-10-31T02:11:57.809Z,15.83
2022-10-31T02:15:00.956Z,17.08
2022-10-31T02:18:06.155Z,17.40
2022-10-31T02:21:27.156Z,16.80
2022-10-31T02:24:38.859Z,18.52
2022-10-31T02:28:03.094Z,17.63
2022-10-31T02:31:17.863Z,17.50
2022-10-31T02:34:34.697Z,16.87
2022-10-31T02:38:03.659Z,17.90
2022-10-31T02:41:19.556Z,18.52
2022-10-31T02:44:37.318Z,18.90
2022-10-31T02:47:40.098Z,18.30
2022-10-31T02:50:49.027Z,18.62
2022-10-31T02:53:51.776Z,16.80
2022-10-31T02:57:16.217Z,17.67
2022-10-31T03:00:18.838Z,15.50
2022-10-31T03:03:38.728Z,16.12
2022-10-31T03:06:55.332Z,15.80
2022-10-31T03:10:48.806Z,17.85
2022-10-31T03:14:05.981Z,17.08
2022-10-31T03:17:19.815Z,16.03
2022-10-31T03:20:29.136Z,16.58
2022-10-31T03:23:33.819Z,16.55
2022-10-31T03:26:40.160Z,16.58
2022-10-31T03:29:46.047Z,16.98
2022-10-31T03:32:55.623Z,17.33
2022-10-31T03:36:03.617Z,15.77
2022-10-31T03:39:12.061Z,16.37
2022-10-31T03:42:19.804Z,16.95
2022-10-31T03:45:31.328Z,17.25
2022-10-31T03:48:34.842Z,16.07
2022-10-31T03:51:57.782Z,17.23
2022-10-31T03:55:08.505Z,17.10
2022-10-31T03:58:29.568Z,17.35
2022-10-31T04:01:39.650Z,16.50
2022-10-31T04:04:45.623Z,17.10
2022-10-31T04:07:53.400Z,16.80
2022-10-31T04:10:58.788Z,17.23
2022-10-31T04:14:05.938Z,16.70
2022-10-31T04:17:16.435Z,17.35
2022-10-31T04:20:19.524Z,18.00
2022-10-31T04:23:26.329Z,17.50
2022-10-31T04:26:30.593Z,17.52
2022-10-31T04:29:33.999Z,17.30
2022-10-31T04:32:36.642Z,18.02
2022-10-31T04:35:40.689Z,17.37
2022-10-31T04:38:43.256Z,17.12
2022-10-31T04:41:46.401Z,19.08
2022-10-31T04:44:49.825Z,18.52
2022-10-31T04:47:57.596Z,19.30
2022-10-31T04:51:02.685Z,18.50
2022-10-31T04:54:07.614Z,17.35
2022-10-31T04:57:14.543Z,18.05
2022-10-31T05:00:21.553Z,17.75
2022-10-31T05:03:27.552Z,20.55
2022-10-31T05:06:31.485Z,19.07
2022-10-31T05:09:34.591Z,19.92
2022-10-31T05:12:37.764Z,19.35
2022-10-31T05:15:43.715Z,17.52
2022-10-31T05:18:50.010Z,17.67
2022-10-31T05:21:55.169Z,17.97
2022-10-31T05:24:59.771Z,17.87
2022-10-31T05:28:02.980Z,18.08
2022-10-31T05:31:07.121Z,18.67
2022-10-31T05:34:11.265Z,20.35
2022-10-31T05:37:18.074Z,19.47
2022-10-31T05:40:23.855Z,19.17
2022-10-31T05:43:29.221Z,21.20
2022-10-31T05:46:31.947Z,19.50
2022-10-31T05:49:38.144Z,19.75
2022-10-31T05:52:45.290Z,17.90
2022-10-31T05:55:49.885Z,19.40
2022-10-31T05:58:53.218Z,20.23
2022-10-31T06:01:57.474Z,19.60
2022-10-31T06:05:03.656Z,19.08
2022-10-31T06:08:10.578Z,18.97
2022-10-31T06:11:14.618Z,17.33
2022-10-31T06:14:21.491Z,18.87
2022-10-31T06:17:28.485Z,18.10
2022-10-31T06:20:41.460Z,18.30
2022-10-31T06:23:47.203Z,17.47
2022-10-31T06:26:51.249Z,16.20
2022-10-31T06:30:02.663Z,15.93
2022-10-31T06:33:07.804Z,17.33
2022-10-31T06:36:13.385Z,17.02
2022-10-31T06:39:17.365Z,15.50
2022-10-31T06:42:22.441Z,16.37
2022-10-31T06:45:28.080Z,16.02
2022-10-31T06:48:39.872Z,15.85
2022-10-31T06:51:44.617Z,16.42
2022-10-31T06:54:49.737Z,14.60
2022-10-31T06:58:03.110Z,16.45
2022-10-31T07:01:08.715Z,15.00
2022-10-31T07:04:19.488Z,14.77
2022-10-31T07:07:25.917Z,14.30
2022-10-31T07:10:37.426Z,14.30
2022-10-31T07:13:44.254Z,12.90
2022-10-31T07:16:55.819Z,12.73
2022-10-31T07:20:04.483Z,12.02
2022-10-31T07:23:15.997Z,12.77
2022-10-31T07:26:28.972Z,12.70
2022-10-31T07:29:33.103Z,11.82
2022-10-31T07:32:43.963Z,11.40
2022-10-31T07:35:49.136Z,11.45
2022-10-31T07:38:53.684Z,11.18
2022-10-31T07:42:00.405Z,10.40
2022-10-31T07:45:12.806Z,9.90
2022-10-31T07:48:40.345Z,11.07
2022-10-31T07:52:12.849Z,11.43
2022-10-31T07:55:29.048Z,10.98
2022-10-31T07:58:36.449Z,9.90
2022-10-31T08:01:44.409Z,10.98
2022-10-31T08:05:01.354Z,11.18
2022-10-31T08:08:32.180Z,10.40
2022-10-31T08:11:44.065Z,10.25
2022-10-31T08:14:49.657Z,10.63
2022-10-31T08:17:55.156Z,10.02
2022-10-31T08:21:13.718Z,9.75
2022-10-31T08:24:32.401Z,9.38
2022-10-31T08:27:38.688Z,9.32
2022-10-31T08:30:43.454Z,9.27
2022-10-31T08:33:54.411Z,10.30
2022-10-31T08:37:03.916Z,9.85
2022-10-31T08:40:14.548Z,9.27
2022-10-31T08:43:30.390Z,10.82
2022-10-31T08:46:44.881Z,9.60
2022-10-31T08:49:48.606Z,10.63
2022-10-31T08:53:06.276Z,10.43
2022-10-31T08:56:13.529Z,10.45
2022-10-31T08:59:23.942Z,9.80
2022-10-31T09:02:29.172Z,8.97
2022-10-31T09:05:34.791Z,9.40
2022-10-31T09:08:42.640Z,9.65
2022-10-31T09:11:49.503Z,8.82
2022-10-31T09:15:01.846Z,9.30
2022-10-31T09:18:15.590Z,9.33
2022-10-31T09:21:19.481Z,9.43
2022-10-31T09:24:25.836Z,9.85
2022-10-31T09:27:29.924Z,9.73
2022-10-31T09:30:36.445Z,10.20
2022-10-31T09:33:46.578Z,10.27
2022-10-31T09:36:54.976Z,10.00
2022-10-31T09:40:01.576Z,9.43
2022-10-31T09:43:11.610Z,9.77
2022-10-31T09:46:58.264Z,10.10
2022-10-31T09:50:30.336Z,9.27
2022-10-31T09:53:50.396Z,9.50
2022-10-31T09:57:13.471Z,10.05
2022-10-31T10:00:24.431Z,10.32
2022-10-31T10:03:43.926Z,9.93
2022-10-31T10:06:56.440Z,9.03
2022-10-31T10:10:13.649Z,10.18
2022-10-31T10:13:20.878Z,9.43
2022-10-31T10:17:08.780Z,8.85
2022-10-31T10:20:27.149Z,9.27
2022-10-31T10:24:00.970Z,9.00
2022-10-31T10:27:23.225Z,9.63
2022-10-31T10:30:56.462Z,9.77
2022-10-31T10:34:28.052Z,9.85
2022-10-31T10:37:40.430Z,9.32
2022-10-31T10:40:54.483Z,9.40
2022-10-31T10:44:00.962Z,8.70
2022-10-31T10:47:41.348Z,8.85
2022-10-31T10:50:52.524Z,8.02
2022-10-31T10:54:18.423Z,8.77
2022-10-31T10:57:34.536Z,8.20
2022-10-31T11:00:43.345Z,9.30
2022-10-31T11:03:47.902Z,9.60
2022-10-31T11:07:06.498Z,8.85
2022-10-31T11:10:16.253Z,9.77
2022-10-31T11:13:28.516Z,8.97
2022-10-31T11:16:43.333Z,9.55
2022-10-31T11:20:07.543Z,10.55
2022-10-31T11:23:31.367Z,9.75
2022-10-31T11:26:36.672Z,9.27
2022-10-31T11:29:47.848Z,9.07
2022-10-31T11:33:03.249Z,10.07
2022-10-31T11:36:36.466Z,9.48
2022-10-31T11:39:43.469Z,10.00
2022-10-31T11:43:04.354Z,10.35
2022-10-31T11:46:26.496Z,10.00
2022-10-31T11:49:52.457Z,10.25
2022-10-31T11:52:58.457Z,10.38
2022-10-31T11:56:15.433Z,9.27
2022-10-31T11:59:29.480Z,9.98
2022-10-31T12:02:35.534Z,11.93
2022-10-31T12:05:46.446Z,10.23
2022-10-31T12:08:51.159Z,11.32
2022-10-31T12:12:17.412Z,9.77
2022-10-31T12:15:29.456Z,10.60
2022-10-31T12:18:54.742Z,10.63
2022-10-31T12:22:19.802Z,9.60
2022-10-31T12:25:39.835Z,9.88
2022-10-31T12:29:08.661Z,10.23
2022-10-31T12:32:40.350Z,9.37
2022-10-31T12:36:15.744Z,10.27
2022-10-31T12:39:33.536Z,11.23
2022-10-31T12:43:00.946Z,10.10
2022-10-31T12:46:12.576Z,10.75
2022-10-31T12:49:41.462Z,10.63
2022-10-31T12:53:13.505Z,10.20
2022-10-31T12:56:37.536Z,10.77
2022-10-31T12:59:48.418Z,10.27
2022-10-31T13:03:23.409Z,10.98
2022-10-31T13:06:44.841Z,10.97
2022-10-31T13:09:58.658Z,11.10
2022-10-31T13:13:13.894Z,11.65
2022-10-31T13:16:23.771Z,11.85
2022-10-31T13:19:39.768Z,11.70
2022-10-31T13:23:01.692Z,11.90
2022-10-31T13:26:50.374Z,11.38
2022-10-31T13:30:22.363Z,11.68
2022-10-31T13:33:44.430Z,12.05
2022-10-31T13:37:03.180Z,11.02
2022-10-31T13:40:38.610Z,10.90
2022-10-31T13:44:25.043Z,10.52
2022-10-31T13:47:31.528Z,10.80
2022-10-31T13:50:35.653Z,11.25
2022-10-31T13:53:50.420Z,11.07
2022-10-31T13:56:56.606Z,12.17
2022-10-31T14:00:05.423Z,11.10
2022-10-31T14:03:36.313Z,11.02
2022-10-31T14:06:55.378Z,10.90
2022-10-31T14:10:23.003Z,11.85
2022-10-31T14:13:38.428Z,12.47
2022-10-31T14:16:46.413Z,13.07
2022-10-31T14:20:11.652Z,14.20
2022-10-31T14:23:41.578Z,12.70
2022-10-31T14:26:59.426Z,22.80
2022-10-31T14:30:19.723Z,15.07
2022-10-31T14:33:34.328Z,22.52
2022-10-31T14:37:28.299Z,23.80
2022-10-31T14:40:58.537Z,12.23
2022-10-31T14:44:38.704Z,24.58
2022-10-31T14:48:06.769Z,15.70
2022-10-31T14:51:45.374Z,14.90
2022-10-31T14:55:00.525Z,16.48
2022-10-31T14:58:11.532Z,26.05
2022-10-31T15:01:30.030Z,30.60
2022-10-31T15:04:40.675Z,15.00
2022-10-31T15:07:58.511Z,14.30
2022-10-31T15:11:20.417Z,14.87
2022-10-31T15:14:35.397Z,15.55
2022-10-31T15:18:01.386Z,13.77
2022-10-31T15:21:12.591Z,13.27
2022-10-31T15:24:26.324Z,12.63
2022-10-31T15:27:34.530Z,14.07
2022-10-31T15:30:41.457Z,13.98
2022-10-31T15:33:53.501Z,21.42
2022-10-31T15:36:59.142Z,14.20
2022-10-31T15:40:16.756Z,14.75
2022-10-31T15:43:20.441Z,14.02
2022-10-31T15:46:26.499Z,13.65
2022-10-31T15:49:48.381Z,14.25
2022-10-31T15:53:01.902Z,15.30
2022-10-31T15:56:12.472Z,14.95
2022-10-31T15:59:25.545Z,15.57
2022-10-31T16:02:29.183Z,15.57
2022-10-31T16:05:48.587Z,17.15
2022-10-31T16:08:55.615Z,16.03
2022-10-31T16:12:05.770Z,17.45
2022-10-31T16:15:18.121Z,14.95
2022-10-31T16:18:22.420Z,16.92
2022-10-31T16:21:46.342Z,17.45
2022-10-31T16:25:25.494Z,17.20
2022-10-31T16:28:31.959Z,20.67
2022-10-31T16:31:43.811Z,19.05
2022-10-31T16:35:03.713Z,16.45
2022-10-31T16:38:18.471Z,23.00
2022-10-31T16:41:31.370Z,15.77
2022-10-31T16:44:49.441Z,15.80
2022-10-31T16:47:53.471Z,15.63
2022-10-31T16:51:03.813Z,16.12
2022-10-31T16:54:14.883Z,15.57
2022-10-31T16:57:28.679Z,15.47
2022-10-31T17:00:45.335Z,16.58
2022-10-31T17:03:48.762Z,17.50
2022-10-31T17:07:02.425Z,15.98
2022-10-31T17:10:07.725Z,15.02
2022-10-31T17:13:18.494Z,16.87
2022-10-31T17:16:22.981Z,16.20
2022-10-31T17:19:44.320Z,14.63
2022-10-31T17:22:56.549Z,15.27
2022-10-31T17:26:01.422Z,16.33
2022-10-31T17:29:08.540Z,15.23
2022-10-31T17:32:21.602Z,16.17
2022-10-31T17:35:33.393Z,17.85
2022-10-31T17:38:43.451Z,16.77
2022-10-31T17:41:52.043Z,16.35
2022-10-31T17:44:57.451Z,16.10
2022-10-31T17:48:13.582Z,16.40
2022-10-31T17:51:27.672Z,15.95
2022-10-31T17:54:36.392Z,15.90
2022-10-31T17:57:40.234Z,17.17
2022-10-31T18:00:50.468Z,18.10
2022-10-31T18:04:02.499Z,18.83
2022-10-31T18:07:20.837Z,19.35
2022-10-31T18:10:37.408Z,18.85
2022-10-31T18:13:46.382Z,19.70
2022-10-31T18:16:55.708Z,19.20
2022-10-31T18:20:10.548Z,19.48
2022-10-31T18:23:16.060Z,22.83
2022-10-31T18:26:35.327Z,19.02
2022-10-31T18:29:40.006Z,17.95
2022-10-31T18:32:45.625Z,17.40
2022-10-31T18:35:49.642Z,16.77
2022-10-31T18:39:09.318Z,16.05
2022-10-31T18:42:19.335Z,15.88
2022-10-31T18:45:33.925Z,17.25
2022-10-31T18:48:47.359Z,16.37
2022-10-31T18:51:57.586Z,16.20
2022-10-31T18:55:02.454Z,14.50
2022-10-31T18:58:12.316Z,14.68
2022-10-31T19:01:21.112Z,14.93
2022-10-31T19:04:33.693Z,14.93
2022-10-31T19:07:49.632Z,14.68
2022-10-31T19:10:55.415Z,15.13
2022-10-31T19:14:04.387Z,14.43
2022-10-31T19:17:23.350Z,14.93
2022-10-31T19:20:36.507Z,13.27
2022-10-31T19:23:43.410Z,13.20
2022-10-31T19:26:51.948Z,15.13
2022-10-31T19:30:08.543Z,14.87
2022-10-31T19:33:34.873Z,13.80
2022-10-31T19:36:40.617Z,13.30
2022-10-31T19:40:01.326Z,12.37
2022-10-31T19:43:10.883Z,12.98
2022-10-31T19:46:22.748Z,13.73
2022-10-31T19:49:38.742Z,13.75
2022-10-31T19:52:55.444Z,14.60
2022-10-31T19:56:14.926Z,13.05
2022-10-31T19:59:20.939Z,12.55
2022-10-31T20:02:31.052Z,12.00
2022-10-31T20:05:49.412Z,11.23
2022-10-31T20:08:55.735Z,11.47
2022-10-31T20:12:05.384Z,11.60
2022-10-31T20:15:25.427Z,11.20
2022-10-31T20:18:36.404Z,11.90
2022-10-31T20:21:44.739Z,11.68
2022-10-31T20:24:50.521Z,10.63
2022-10-31T20:28:04.339Z,10.85
2022-10-31T20:31:17.409Z,12.10
2022-10-31T20:34:20.611Z,10.65
2022-10-31T20:37:31.649Z,12.00
2022-10-31T20:40:38.174Z,11.40
2022-10-31T20:44:02.456Z,11.38
2022-10-31T20:47:06.881Z,12.30
2022-10-31T20:50:11.051Z,12.43
2022-10-31T20:53:26.080Z,12.48
2022-10-31T20:56:37.945Z,11.57
2022-10-31T20:59:49.324Z,12.00
2022-10-31T21:02:56.469Z,11.32
2022-10-31T21:06:03.434Z,11.15
2022-10-31T21:09:12.992Z,11.40
2022-10-31T21:12:16.585Z,10.97
2022-10-31T21:15:25.912Z,11.30
2022-10-31T21:18:45.433Z,10.82
2022-10-31T21:21:52.576Z,10.30
2022-10-31T21:24:56.006Z,10.48
2022-10-31T21:27:59.604Z,11.23
2022-10-31T21:31:07.895Z,10.98
2022-10-31T21:34:11.788Z,13.18
2022-10-31T21:37:23.283Z,12.18
2022-10-31T21:40:35.435Z,11.43
2022-10-31T21:43:48.861Z,11.33
2022-10-31T21:47:01.666Z,11.68
2022-10-31T21:50:04.423Z,11.90
2022-10-31T21:53:27.216Z,11.35
2022-10-31T21:56:37.284Z,11.45
2022-10-31T21:59:47.678Z,10.83
2022-10-31T22:02:51.485Z,10.48
2022-10-31T22:05:59.681Z,10.77
2022-10-31T22:09:18.885Z,10.48
2022-10-31T22:12:22.205Z,9.98
2022-10-31T22:15:32.945Z,10.23
2022-10-31T22:18:37.002Z,9.43
2022-10-31T22:21:44.427Z,10.18
2022-10-31T22:24:53.050Z,10.93
2022-10-31T22:27:58.871Z,10.10
2022-10-31T22:31:08.562Z,9.20
2022-10-31T22:34:12.918Z,10.40
2022-10-31T22:37:19.735Z,9.45
2022-10-31T22:40:24.512Z,10.02
2022-10-31T22:43:27.576Z,10.63
2022-10-31T22:46:34.293Z,9.90
2022-10-31T22:49:44.325Z,11.50
2022-10-31T22:52:48.544Z,10.68
2022-10-31T22:55:51.787Z,11.50
2022-10-31T22:58:55.031Z,11.43
2022-10-31T23:01:59.775Z,10.30
2022-10-31T23:05:09.316Z,10.10
2022-10-31T23:08:13.710Z,10.65
2022-10-31T23:11:22.128Z,10.13
2022-10-31T23:14:29.762Z,11.25
2022-10-31T23:17:32.833Z,10.33
2022-10-31T23:20:36.485Z,10.57
2022-10-31T23:23:39.655Z,10.73
2022-10-31T23:27:03.394Z,10.88
2022-10-31T23:30:16.674Z,10.43
2022-10-31T23:33:21.963Z,11.23
2022-10-31T23:36:25.300Z,11.77
2022-10-31T23:39:28.711Z,12.23
2022-10-31T23:42:31.588Z,13.35
2022-10-31T23:45:34.354Z,12.93
2022-10-31T23:48:53.557Z,12.00
2022-10-31T23:51:58.126Z,10.82
2022-10-31T23:55:02.830Z,11.50
2022-10-31T23:58:06.698Z,10.18
